sensor_id;sensor_type;location;lat;lon;timestamp;P1;durP1;ratioP1;P2;durP2;ratioP2
29838;SDS011;18669;53.356;-1.464;2023-01-23T00:00:56;34.25;;;17.25;;
29838;SDS011;18669;53.356;-1.464;2023-01-23T00:03:23;32.97;;;16.48;;
29838;SDS011;18669;53.356;-1.464;2023-01-23T00:05:59;32.00;;;16.50;;
29838;SDS011;18669;53.356;-1.464;2023-01-23T00:08:27;27.23;;;16.27;;
29838;SDS011;18669;53.356;-1.464;2023-01-23T00:10:53;29.02;;;16.98;;
29838;SDS011;18669;53.356;-1.464;2023-01-23T00:13:20;29.95;;;16.95;;
29838;SDS011;18669;53.356;-1.464;2023-01-23T00:15:47;28.45;;;15.88;;
29838;SDS011;18669;53.356;-1.464;2023-01-23T00:18:13;32.90;;;16.63;;
29838;SDS011;18669;53.356;-1.464;2023-01-23T00:20:40;30.20;;;15.85;;
29838;SDS011;18669;53.356;-1.464;2023-01-23T00:23:07;31.70;;;16.77;;
29838;SDS011;18669;53.356;-1.464;2023-01-23T00:25:33;28.10;;;15.95;;
29838;SDS011;18669;53.356;-1.464;2023-01-23T00:30:26;30.60;;;16.43;;
29838;SDS011;18669;53.356;-1.464;2023-01-23T00:32:52;30.20;;;16.75;;
29838;SDS011;18669;53.356;-1.464;2023-01-23T00:35:18;26.95;;;16.55;;
29838;SDS011;18669;53.356;-1.464;2023-01-23T00:37:44;29.92;;;16.17;;
29838;SDS011;18669;53.356;-1.464;2023-01-23T00:40:11;28.90;;;15.27;;
29838;SDS011;18669;53.356;-1.464;2023-01-23T00:42:38;31.55;;;16.38;;
29838;SDS011;18669;53.356;-1.464;2023-01-23T00:45:04;26.40;;;15.80;;
29838;SDS011;18669;53.356;-1.464;2023-01-23T00:47:31;32.45;;;15.55;;
29838;SDS011;18669;53.356;-1.464;2023-01-23T00:49:57;30.02;;;15.80;;
29838;SDS011;18669;53.356;-1.464;2023-01-23T00:52:24;27.10;;;15.45;;
29838;SDS011;18669;53.356;-1.464;2023-01-23T00:54:51;28.35;;;16.02;;
29838;SDS011;18669;53.356;-1.464;2023-01-23T00:57:17;26.35;;;15.50;;
29838;SDS011;18669;53.356;-1.464;2023-01-23T00:59:43;29.45;;;16.40;;
29838;SDS011;18669;53.356;-1.464;2023-01-23T01:02:09;27.48;;;16.17;;
29838;SDS011;18669;53.356;-1.464;2023-01-23T01:04:35;26.73;;;15.57;;
29838;SDS011;18669;53.356;-1.464;2023-01-23T01:07:01;32.63;;;17.08;;
29838;SDS011;18669;53.356;-1.464;2023-01-23T01:09:27;31.02;;;15.23;;
29838;SDS011;18669;53.356;-1.464;2023-01-23T01:11:53;27.50;;;16.17;;
29838;SDS011;18669;53.356;-1.464;2023-01-23T01:14:20;27.08;;;15.50;;
29838;SDS011;18669;53.356;-1.464;2023-01-23T01:16:47;30.88;;;15.80;;
29838;SDS011;18669;53.356;-1.464;2023-01-23T01:19:15;28.45;;;15.70;;
29838;SDS011;18669;53.356;-1.464;2023-01-23T01:21:42;27.75;;;15.57;;
29838;SDS011;18669;53.356;-1.464;2023-01-23T01:24:09;29.35;;;15.65;;
29838;SDS011;18669;53.356;-1.464;2023-01-23T01:26:35;27.23;;;15.82;;
29838;SDS011;18669;53.356;-1.464;2023-01-23T01:29:01;30.15;;;16.65;;
29838;SDS011;18669;53.356;-1.464;2023-01-23T01:31:28;27.42;;;15.43;;
29838;SDS011;18669;53.356;-1.464;2023-01-23T01:33:54;33.25;;;16.55;;
29838;SDS011;18669;53.356;-1.464;2023-01-23T01:36:21;30.17;;;16.48;;
29838;SDS011;18669;53.356;-1.464;2023-01-23T01:38:48;34.10;;;17.35;;
29838;SDS011;18669;53.356;-1.464;2023-01-23T01:41:15;34.78;;;17.23;;
29838;SDS011;18669;53.356;-1.464;2023-01-23T01:43:42;28.83;;;16.73;;
29838;SDS011;18669;53.356;-1.464;2023-01-23T01:48:47;30.27;;;15.95;;
29838;SDS011;18669;53.356;-1.464;2023-01-23T01:51:34;32.30;;;16.88;;
29838;SDS011;18669;53.356;-1.464;2023-01-23T01:56:54;29.35;;;16.40;;
29838;SDS011;18669;53.356;-1.464;2023-01-23T01:59:43;31.77;;;17.02;;
29838;SDS011;18669;53.356;-1.464;2023-01-23T02:02:25;30.10;;;17.27;;
29838;SDS011;18669;53.356;-1.464;2023-01-23T02:05:11;28.42;;;16.33;;
29838;SDS011;18669;53.356;-1.464;2023-01-23T02:07:47;30.48;;;17.50;;
29838;SDS011;18669;53.356;-1.464;2023-01-23T02:10:19;29.83;;;16.25;;
29838;SDS011;18669;53.356;-1.464;2023-01-23T02:12:47;29.83;;;17.52;;
29838;SDS011;18669;53.356;-1.464;2023-01-23T02:15:14;34.35;;;18.02;;
29838;SDS011;18669;53.356;-1.464;2023-01-23T02:17:42;26.40;;;16.88;;
29838;SDS011;18669;53.356;-1.464;2023-01-23T02:20:25;26.92;;;16.70;;
29838;SDS011;18669;53.356;-1.464;2023-01-23T02:25:50;27.63;;;16.20;;
29838;SDS011;18669;53.356;-1.464;2023-01-23T02:28:18;31.30;;;16.52;;
29838;SDS011;18669;53.356;-1.464;2023-01-23T02:30:44;34.25;;;16.92;;
29838;SDS011;18669;53.356;-1.464;2023-01-23T02:35:45;29.30;;;17.10;;
29838;SDS011;18669;53.356;-1.464;2023-01-23T02:38:11;28.60;;;16.50;;
29838;SDS011;18669;53.356;-1.464;2023-01-23T02:40:38;33.55;;;17.75;;
29838;SDS011;18669;53.356;-1.464;2023-01-23T02:43:06;29.58;;;16.45;;
29838;SDS011;18669;53.356;-1.464;2023-01-23T02:45:35;29.33;;;17.02;;
29838;SDS011;18669;53.356;-1.464;2023-01-23T02:48:02;27.20;;;17.17;;
29838;SDS011;18669;53.356;-1.464;2023-01-23T02:50:30;29.20;;;17.25;;
29838;SDS011;18669;53.356;-1.464;2023-01-23T02:52:57;27.80;;;16.45;;
29838;SDS011;18669;53.356;-1.464;2023-01-23T02:55:24;33.35;;;17.05;;
29838;SDS011;18669;53.356;-1.464;2023-01-23T02:57:52;31.20;;;17.35;;
29838;SDS011;18669;53.356;-1.464;2023-01-23T03:00:18;30.98;;;16.73;;
29838;SDS011;18669;53.356;-1.464;2023-01-23T03:02:48;32.67;;;16.88;;
29838;SDS011;18669;53.356;-1.464;2023-01-23T03:05:16;28.67;;;17.02;;
29838;SDS011;18669;53.356;-1.464;2023-01-23T03:07:43;29.02;;;16.73;;
29838;SDS011;18669;53.356;-1.464;2023-01-23T03:10:09;27.40;;;16.80;;
29838;SDS011;18669;53.356;-1.464;2023-01-23T03:12:37;26.38;;;16.20;;
29838;SDS011;18669;53.356;-1.464;2023-01-23T03:15:07;35.65;;;17.20;;
29838;SDS011;18669;53.356;-1.464;2023-01-23T03:17:34;31.33;;;16.98;;
29838;SDS011;18669;53.356;-1.464;2023-01-23T03:20:01;27.42;;;15.68;;
29838;SDS011;18669;53.356;-1.464;2023-01-23T03:22:28;27.42;;;16.30;;
29838;SDS011;18669;53.356;-1.464;2023-01-23T03:24:54;27.20;;;16.50;;
29838;SDS011;18669;53.356;-1.464;2023-01-23T03:27:22;33.85;;;17.10;;
29838;SDS011;18669;53.356;-1.464;2023-01-23T03:29:48;34.40;;;16.48;;
29838;SDS011;18669;53.356;-1.464;2023-01-23T03:32:34;30.27;;;16.30;;
29838;SDS011;18669;53.356;-1.464;2023-01-23T03:35:01;31.55;;;17.50;;
29838;SDS011;18669;53.356;-1.464;2023-01-23T03:37:27;30.65;;;16.35;;
29838;SDS011;18669;53.356;-1.464;2023-01-23T03:39:53;27.05;;;16.38;;
29838;SDS011;18669;53.356;-1.464;2023-01-23T03:42:38;27.45;;;16.08;;
29838;SDS011;18669;53.356;-1.464;2023-01-23T03:45:05;30.63;;;16.13;;
29838;SDS011;18669;53.356;-1.464;2023-01-23T03:47:32;25.20;;;15.55;;
29838;SDS011;18669;53.356;-1.464;2023-01-23T03:49:58;28.45;;;15.95;;
29838;SDS011;18669;53.356;-1.464;2023-01-23T03:52:24;25.20;;;15.98;;
29838;SDS011;18669;53.356;-1.464;2023-01-23T03:54:54;29.70;;;16.52;;
29838;SDS011;18669;53.356;-1.464;2023-01-23T03:57:21;29.67;;;17.00;;
29838;SDS011;18669;53.356;-1.464;2023-01-23T03:59:47;25.40;;;15.65;;
29838;SDS011;18669;53.356;-1.464;2023-01-23T04:02:18;26.67;;;15.65;;
29838;SDS011;18669;53.356;-1.464;2023-01-23T04:04:52;30.35;;;15.75;;
29838;SDS011;18669;53.356;-1.464;2023-01-23T04:07:23;29.55;;;16.58;;
29838;SDS011;18669;53.356;-1.464;2023-01-23T04:09:49;27.95;;;15.45;;
29838;SDS011;18669;53.356;-1.464;2023-01-23T04:12:16;29.70;;;16.42;;
29838;SDS011;18669;53.356;-1.464;2023-01-23T04:14:42;30.25;;;15.80;;
29838;SDS011;18669;53.356;-1.464;2023-01-23T04:17:09;24.73;;;15.52;;
29838;SDS011;18669;53.356;-1.464;2023-01-23T04:19:35;30.73;;;16.17;;
29838;SDS011;18669;53.356;-1.464;2023-01-23T04:22:03;29.85;;;16.48;;
29838;SDS011;18669;53.356;-1.464;2023-01-23T04:24:30;26.02;;;15.60;;
29838;SDS011;18669;53.356;-1.464;2023-01-23T04:26:56;24.23;;;14.43;;
29838;SDS011;18669;53.356;-1.464;2023-01-23T04:29:23;27.17;;;15.90;;
29838;SDS011;18669;53.356;-1.464;2023-01-23T04:31:50;28.27;;;16.40;;
29838;SDS011;18669;53.356;-1.464;2023-01-23T04:34:16;28.50;;;16.73;;
29838;SDS011;18669;53.356;-1.464;2023-01-23T04:36:42;28.00;;;15.90;;
29838;SDS011;18669;53.356;-1.464;2023-01-23T04:39:08;26.80;;;16.20;;
29838;SDS011;18669;53.356;-1.464;2023-01-23T04:44:00;28.63;;;16.27;;
29838;SDS011;18669;53.356;-1.464;2023-01-23T04:46:45;30.02;;;15.82;;
29838;SDS011;18669;53.356;-1.464;2023-01-23T04:49:11;25.73;;;16.10;;
29838;SDS011;18669;53.356;-1.464;2023-01-23T04:51:38;28.80;;;16.65;;
29838;SDS011;18669;53.356;-1.464;2023-01-23T04:56:31;26.98;;;16.20;;
29838;SDS011;18669;53.356;-1.464;2023-01-23T04:58:57;32.28;;;17.30;;
29838;SDS011;18669;53.356;-1.464;2023-01-23T05:01:23;29.50;;;16.98;;
29838;SDS011;18669;53.356;-1.464;2023-01-23T05:03:50;36.72;;;17.23;;
29838;SDS011;18669;53.356;-1.464;2023-01-23T05:06:17;26.20;;;15.45;;
29838;SDS011;18669;53.356;-1.464;2023-01-23T05:11:09;25.77;;;15.35;;
29838;SDS011;18669;53.356;-1.464;2023-01-23T05:13:35;30.85;;;15.85;;
29838;SDS011;18669;53.356;-1.464;2023-01-23T05:16:02;31.35;;;17.00;;
29838;SDS011;18669;53.356;-1.464;2023-01-23T05:18:28;32.50;;;16.25;;
29838;SDS011;18669;53.356;-1.464;2023-01-23T05:20:54;27.52;;;16.08;;
29838;SDS011;18669;53.356;-1.464;2023-01-23T05:23:21;27.80;;;15.88;;
29838;SDS011;18669;53.356;-1.464;2023-01-23T05:25:47;27.95;;;16.92;;
29838;SDS011;18669;53.356;-1.464;2023-01-23T05:28:14;28.85;;;16.25;;
29838;SDS011;18669;53.356;-1.464;2023-01-23T05:30:40;30.92;;;17.60;;
29838;SDS011;18669;53.356;-1.464;2023-01-23T05:35:32;33.63;;;16.77;;
29838;SDS011;18669;53.356;-1.464;2023-01-23T05:37:58;32.15;;;17.17;;
29838;SDS011;18669;53.356;-1.464;2023-01-23T05:40:24;28.58;;;15.75;;
29838;SDS011;18669;53.356;-1.464;2023-01-23T05:42:50;32.70;;;17.15;;
29838;SDS011;18669;53.356;-1.464;2023-01-23T05:45:17;29.80;;;16.85;;
29838;SDS011;18669;53.356;-1.464;2023-01-23T05:47:43;30.83;;;16.92;;
29838;SDS011;18669;53.356;-1.464;2023-01-23T05:50:13;32.83;;;18.33;;
29838;SDS011;18669;53.356;-1.464;2023-01-23T05:52:41;37.47;;;16.92;;
29838;SDS011;18669;53.356;-1.464;2023-01-23T05:55:08;30.88;;;18.50;;
29838;SDS011;18669;53.356;-1.464;2023-01-23T05:57:34;33.10;;;17.60;;
29838;SDS011;18669;53.356;-1.464;2023-01-23T06:02:27;27.52;;;17.27;;
29838;SDS011;18669;53.356;-1.464;2023-01-23T06:04:53;35.58;;;18.88;;
29838;SDS011;18669;53.356;-1.464;2023-01-23T06:07:20;33.65;;;18.40;;
29838;SDS011;18669;53.356;-1.464;2023-01-23T06:09:46;31.08;;;18.17;;
29838;SDS011;18669;53.356;-1.464;2023-01-23T06:12:13;32.13;;;18.63;;
29838;SDS011;18669;53.356;-1.464;2023-01-23T06:14:39;36.08;;;19.02;;
29838;SDS011;18669;53.356;-1.464;2023-01-23T06:17:05;42.00;;;19.10;;
29838;SDS011;18669;53.356;-1.464;2023-01-23T06:19:32;31.88;;;17.00;;
29838;SDS011;18669;53.356;-1.464;2023-01-23T06:21:59;30.20;;;17.80;;
29838;SDS011;18669;53.356;-1.464;2023-01-23T06:26:51;31.83;;;16.63;;
29838;SDS011;18669;53.356;-1.464;2023-01-23T06:29:17;27.63;;;17.55;;
29838;SDS011;18669;53.356;-1.464;2023-01-23T06:31:43;38.78;;;18.10;;
29838;SDS011;18669;53.356;-1.464;2023-01-23T06:34:11;29.05;;;17.30;;
29838;SDS011;18669;53.356;-1.464;2023-01-23T06:36:37;29.23;;;17.38;;
29838;SDS011;18669;53.356;-1.464;2023-01-23T06:39:03;28.77;;;17.42;;
29838;SDS011;18669;53.356;-1.464;2023-01-23T06:41:29;32.80;;;18.50;;
29838;SDS011;18669;53.356;-1.464;2023-01-23T06:43:55;32.97;;;16.88;;
29838;SDS011;18669;53.356;-1.464;2023-01-23T06:46:22;27.50;;;17.10;;
29838;SDS011;18669;53.356;-1.464;2023-01-23T06:48:48;28.00;;;17.13;;
29838;SDS011;18669;53.356;-1.464;2023-01-23T06:51:14;31.77;;;17.80;;
29838;SDS011;18669;53.356;-1.464;2023-01-23T06:53:40;30.67;;;16.77;;
29838;SDS011;18669;53.356;-1.464;2023-01-23T06:56:07;32.50;;;17.88;;
29838;SDS011;18669;53.356;-1.464;2023-01-23T06:58:35;34.03;;;18.77;;
29838;SDS011;18669;53.356;-1.464;2023-01-23T07:01:11;32.00;;;17.98;;
29838;SDS011;18669;53.356;-1.464;2023-01-23T07:03:41;30.42;;;17.73;;
29838;SDS011;18669;53.356;-1.464;2023-01-23T07:06:09;35.00;;;19.00;;
29838;SDS011;18669;53.356;-1.464;2023-01-23T07:08:37;34.70;;;18.73;;
29838;SDS011;18669;53.356;-1.464;2023-01-23T07:11:04;31.17;;;18.20;;
29838;SDS011;18669;53.356;-1.464;2023-01-23T07:13:31;36.47;;;19.95;;
29838;SDS011;18669;53.356;-1.464;2023-01-23T07:15:58;30.10;;;18.05;;
29838;SDS011;18669;53.356;-1.464;2023-01-23T07:18:25;35.22;;;18.85;;
29838;SDS011;18669;53.356;-1.464;2023-01-23T07:20:53;33.78;;;18.33;;
29838;SDS011;18669;53.356;-1.464;2023-01-23T07:23:20;30.65;;;18.23;;
29838;SDS011;18669;53.356;-1.464;2023-01-23T07:25:47;30.50;;;17.38;;
29838;SDS011;18669;53.356;-1.464;2023-01-23T07:28:13;32.45;;;17.60;;
29838;SDS011;18669;53.356;-1.464;2023-01-23T07:30:39;35.67;;;18.90;;
29838;SDS011;18669;53.356;-1.464;2023-01-23T07:33:05;33.60;;;18.13;;
29838;SDS011;18669;53.356;-1.464;2023-01-23T07:35:31;29.60;;;17.98;;
29838;SDS011;18669;53.356;-1.464;2023-01-23T07:37:58;28.60;;;18.33;;
29838;SDS011;18669;53.356;-1.464;2023-01-23T07:40:24;32.05;;;17.33;;
29838;SDS011;18669;53.356;-1.464;2023-01-23T07:42:51;30.23;;;18.42;;
29838;SDS011;18669;53.356;-1.464;2023-01-23T07:45:17;36.33;;;17.20;;
29838;SDS011;18669;53.356;-1.464;2023-01-23T07:47:44;31.17;;;18.08;;
29838;SDS011;18669;53.356;-1.464;2023-01-23T07:50:11;32.25;;;17.50;;
29838;SDS011;18669;53.356;-1.464;2023-01-23T07:52:38;29.05;;;17.60;;
29838;SDS011;18669;53.356;-1.464;2023-01-23T07:55:04;34.72;;;18.65;;
29838;SDS011;18669;53.356;-1.464;2023-01-23T07:57:31;29.73;;;17.65;;
29838;SDS011;18669;53.356;-1.464;2023-01-23T07:59:58;33.22;;;17.15;;
29838;SDS011;18669;53.356;-1.464;2023-01-23T08:02:26;31.50;;;17.70;;
29838;SDS011;18669;53.356;-1.464;2023-01-23T08:04:52;33.45;;;17.30;;
29838;SDS011;18669;53.356;-1.464;2023-01-23T08:07:19;29.83;;;17.10;;
29838;SDS011;18669;53.356;-1.464;2023-01-23T08:09:45;32.17;;;17.70;;
29838;SDS011;18669;53.356;-1.464;2023-01-23T08:12:11;31.27;;;17.85;;
29838;SDS011;18669;53.356;-1.464;2023-01-23T08:14:38;33.95;;;19.08;;
29838;SDS011;18669;53.356;-1.464;2023-01-23T08:17:05;31.85;;;16.88;;
29838;SDS011;18669;53.356;-1.464;2023-01-23T08:19:31;36.72;;;17.42;;
29838;SDS011;18669;53.356;-1.464;2023-01-23T08:22:00;31.48;;;18.70;;
29838;SDS011;18669;53.356;-1.464;2023-01-23T08:24:26;31.65;;;18.42;;
29838;SDS011;18669;53.356;-1.464;2023-01-23T08:26:53;33.72;;;19.73;;
29838;SDS011;18669;53.356;-1.464;2023-01-23T08:29:19;38.10;;;19.40;;
29838;SDS011;18669;53.356;-1.464;2023-01-23T08:31:46;33.58;;;18.38;;
29838;SDS011;18669;53.356;-1.464;2023-01-23T08:34:12;28.38;;;17.63;;
29838;SDS011;18669;53.356;-1.464;2023-01-23T08:36:39;28.15;;;17.67;;
29838;SDS011;18669;53.356;-1.464;2023-01-23T08:39:06;29.15;;;17.80;;
29838;SDS011;18669;53.356;-1.464;2023-01-23T08:41:32;32.72;;;18.65;;
29838;SDS011;18669;53.356;-1.464;2023-01-23T08:44:01;32.65;;;18.23;;
29838;SDS011;18669;53.356;-1.464;2023-01-23T08:46:29;34.22;;;19.38;;
29838;SDS011;18669;53.356;-1.464;2023-01-23T08:48:55;32.63;;;18.63;;
29838;SDS011;18669;53.356;-1.464;2023-01-23T08:51:24;38.67;;;19.70;;
29838;SDS011;18669;53.356;-1.464;2023-01-23T08:53:54;36.47;;;19.30;;
29838;SDS011;18669;53.356;-1.464;2023-01-23T08:56:21;34.60;;;18.70;;
29838;SDS011;18669;53.356;-1.464;2023-01-23T08:58:49;36.22;;;19.73;;
29838;SDS011;18669;53.356;-1.464;2023-01-23T09:01:17;33.92;;;19.65;;
29838;SDS011;18669;53.356;-1.464;2023-01-23T09:03:48;35.22;;;19.52;;
29838;SDS011;18669;53.356;-1.464;2023-01-23T09:06:17;39.05;;;21.05;;
29838;SDS011;18669;53.356;-1.464;2023-01-23T09:08:45;43.67;;;21.50;;
29838;SDS011;18669;53.356;-1.464;2023-01-23T09:11:12;36.97;;;20.40;;
29838;SDS011;18669;53.356;-1.464;2023-01-23T09:13:38;34.95;;;19.02;;
29838;SDS011;18669;53.356;-1.464;2023-01-23T09:16:05;33.45;;;19.83;;
29838;SDS011;18669;53.356;-1.464;2023-01-23T09:18:35;39.20;;;21.05;;
29838;SDS011;18669;53.356;-1.464;2023-01-23T09:21:06;41.95;;;21.38;;
29838;SDS011;18669;53.356;-1.464;2023-01-23T09:23:34;39.80;;;21.63;;
29838;SDS011;18669;53.356;-1.464;2023-01-23T09:28:38;36.33;;;20.03;;
29838;SDS011;18669;53.356;-1.464;2023-01-23T09:31:07;47.78;;;25.00;;
29838;SDS011;18669;53.356;-1.464;2023-01-23T09:33:36;38.42;;;21.25;;
29838;SDS011;18669;53.356;-1.464;2023-01-23T09:36:03;38.50;;;21.05;;
29838;SDS011;18669;53.356;-1.464;2023-01-23T09:38:33;34.88;;;20.90;;
29838;SDS011;18669;53.356;-1.464;2023-01-23T09:46:03;38.38;;;20.65;;
29838;SDS011;18669;53.356;-1.464;2023-01-23T09:53:57;32.03;;;18.92;;
29838;SDS011;18669;53.356;-1.464;2023-01-23T09:56:30;33.30;;;17.95;;
29838;SDS011;18669;53.356;-1.464;2023-01-23T10:01:52;31.95;;;19.98;;
29838;SDS011;18669;53.356;-1.464;2023-01-23T10:12:31;37.05;;;19.77;;
29838;SDS011;18669;53.356;-1.464;2023-01-23T10:15:18;29.95;;;19.15;;
29838;SDS011;18669;53.356;-1.464;2023-01-23T10:26:20;29.70;;;17.23;;
29838;SDS011;18669;53.356;-1.464;2023-01-23T10:28:53;30.38;;;18.77;;
29838;SDS011;18669;53.356;-1.464;2023-01-23T10:31:35;30.42;;;19.27;;
29838;SDS011;18669;53.356;-1.464;2023-01-23T10:34:10;31.23;;;18.25;;
29838;SDS011;18669;53.356;-1.464;2023-01-23T10:39:57;30.10;;;19.45;;
29838;SDS011;18669;53.356;-1.464;2023-01-23T10:42:20;34.88;;;20.48;;
29838;SDS011;18669;53.356;-1.464;2023-01-23T10:44:49;31.70;;;20.02;;
29838;SDS011;18669;53.356;-1.464;2023-01-23T10:47:32;27.95;;;18.73;;
29838;SDS011;18669;53.356;-1.464;2023-01-23T10:50:06;29.63;;;18.90;;
29838;SDS011;18669;53.356;-1.464;2023-01-23T10:54:59;33.47;;;21.00;;
29838;SDS011;18669;53.356;-1.464;2023-01-23T10:57:29;34.40;;;20.70;;
29838;SDS011;18669;53.356;-1.464;2023-01-23T11:02:51;31.65;;;19.33;;
29838;SDS011;18669;53.356;-1.464;2023-01-23T11:08:01;35.90;;;20.05;;
29838;SDS011;18669;53.356;-1.464;2023-01-23T11:12:53;34.90;;;19.40;;
29838;SDS011;18669;53.356;-1.464;2023-01-23T11:15:21;35.70;;;19.20;;
29838;SDS011;18669;53.356;-1.464;2023-01-23T11:17:56;31.52;;;19.08;;
29838;SDS011;18669;53.356;-1.464;2023-01-23T11:25:45;42.10;;;20.55;;
29838;SDS011;18669;53.356;-1.464;2023-01-23T11:36:00;35.42;;;20.30;;
29838;SDS011;18669;53.356;-1.464;2023-01-23T11:38:35;32.22;;;19.48;;
29838;SDS011;18669;53.356;-1.464;2023-01-23T11:41:08;34.35;;;19.13;;
29838;SDS011;18669;53.356;-1.464;2023-01-23T11:43:39;34.95;;;19.08;;
29838;SDS011;18669;53.356;-1.464;2023-01-23T12:00:19;30.38;;;18.63;;
29838;SDS011;18669;53.356;-1.464;2023-01-23T12:05:25;31.85;;;18.05;;
29838;SDS011;18669;53.356;-1.464;2023-01-23T12:08:07;26.70;;;17.73;;
29838;SDS011;18669;53.356;-1.464;2023-01-23T12:35:47;17.35;;;12.35;;
29838;SDS011;18669;53.356;-1.464;2023-01-23T12:38:33;14.85;;;11.75;;
29838;SDS011;18669;53.356;-1.464;2023-01-23T12:43:52;17.05;;;12.63;;
29838;SDS011;18669;53.356;-1.464;2023-01-23T12:46:36;22.15;;;14.10;;
29838;SDS011;18669;53.356;-1.464;2023-01-23T12:49:13;15.75;;;11.93;;
29838;SDS011;18669;53.356;-1.464;2023-01-23T12:51:56;20.58;;;12.80;;
29838;SDS011;18669;53.356;-1.464;2023-01-23T12:54:29;14.25;;;10.88;;
29838;SDS011;18669;53.356;-1.464;2023-01-23T12:57:01;17.40;;;12.07;;
29838;SDS011;18669;53.356;-1.464;2023-01-23T12:59:39;16.98;;;11.70;;
29838;SDS011;18669;53.356;-1.464;2023-01-23T13:08:00;18.15;;;11.98;;
29838;SDS011;18669;53.356;-1.464;2023-01-23T13:10:53;21.73;;;12.00;;
29838;SDS011;18669;53.356;-1.464;2023-01-23T13:13:48;18.75;;;11.98;;
29838;SDS011;18669;53.356;-1.464;2023-01-23T13:16:15;17.02;;;10.70;;
29838;SDS011;18669;53.356;-1.464;2023-01-23T13:18:51;16.70;;;11.98;;
29838;SDS011;18669;53.356;-1.464;2023-01-23T13:24:47;15.15;;;10.88;;
29838;SDS011;18669;53.356;-1.464;2023-01-23T13:32:52;15.13;;;10.45;;
29838;SDS011;18669;53.356;-1.464;2023-01-23T13:50:12;18.58;;;11.35;;
29838;SDS011;18669;53.356;-1.464;2023-01-23T13:52:24;18.25;;;9.93;;
29838;SDS011;18669;53.356;-1.464;2023-01-23T13:55:19;25.38;;;12.18;;
29838;SDS011;18669;53.356;-1.464;2023-01-23T13:58:10;34.75;;;14.07;;
29838;SDS011;18669;53.356;-1.464;2023-01-23T14:00:40;21.00;;;10.35;;
29838;SDS011;18669;53.356;-1.464;2023-01-23T14:03:30;15.82;;;10.05;;
29838;SDS011;18669;53.356;-1.464;2023-01-23T14:11:13;17.85;;;9.63;;
29838;SDS011;18669;53.356;-1.464;2023-01-23T14:13:50;14.65;;;10.38;;
29838;SDS011;18669;53.356;-1.464;2023-01-23T14:16:41;17.60;;;9.75;;
29838;SDS011;18669;53.356;-1.464;2023-01-23T14:19:23;17.45;;;10.15;;
29838;SDS011;18669;53.356;-1.464;2023-01-23T14:22:25;19.77;;;10.55;;
29838;SDS011;18669;53.356;-1.464;2023-01-23T14:24:48;15.63;;;9.38;;
29838;SDS011;18669;53.356;-1.464;2023-01-23T14:27:19;16.60;;;9.63;;
29838;SDS011;18669;53.356;-1.464;2023-01-23T14:29:59;16.55;;;9.80;;
29838;SDS011;18669;53.356;-1.464;2023-01-23T14:32:31;15.13;;;9.45;;
29838;SDS011;18669;53.356;-1.464;2023-01-23T14:34:59;15.80;;;9.75;;
29838;SDS011;18669;53.356;-1.464;2023-01-23T14:37:26;18.70;;;10.50;;
29838;SDS011;18669;53.356;-1.464;2023-01-23T14:39:53;15.25;;;10.27;;
29838;SDS011;18669;53.356;-1.464;2023-01-23T14:42:25;17.48;;;9.52;;
29838;SDS011;18669;53.356;-1.464;2023-01-23T14:44:56;16.15;;;10.07;;
29838;SDS011;18669;53.356;-1.464;2023-01-23T14:47:33;18.42;;;12.00;;
29838;SDS011;18669;53.356;-1.464;2023-01-23T14:50:07;15.45;;;9.82;;
29838;SDS011;18669;53.356;-1.464;2023-01-23T14:52:35;20.95;;;11.05;;
29838;SDS011;18669;53.356;-1.464;2023-01-23T14:55:01;15.75;;;9.90;;
29838;SDS011;18669;53.356;-1.464;2023-01-23T14:57:27;25.60;;;10.45;;
29838;SDS011;18669;53.356;-1.464;2023-01-23T14:59:55;18.08;;;10.55;;
29838;SDS011;18669;53.356;-1.464;2023-01-23T15:02:24;14.73;;;9.88;;
29838;SDS011;18669;53.356;-1.464;2023-01-23T15:07:41;17.55;;;10.88;;
29838;SDS011;18669;53.356;-1.464;2023-01-23T15:10:23;17.98;;;10.25;;
29838;SDS011;18669;53.356;-1.464;2023-01-23T15:13:11;18.48;;;9.93;;
29838;SDS011;18669;53.356;-1.464;2023-01-23T15:15:43;18.60;;;11.10;;
29838;SDS011;18669;53.356;-1.464;2023-01-23T15:18:20;18.17;;;11.00;;
29838;SDS011;18669;53.356;-1.464;2023-01-23T15:20:58;20.30;;;10.45;;
29838;SDS011;18669;53.356;-1.464;2023-01-23T15:31:23;20.73;;;11.13;;
29838;SDS011;18669;53.356;-1.464;2023-01-23T15:33:50;14.52;;;9.48;;
29838;SDS011;18669;53.356;-1.464;2023-01-23T15:36:26;16.33;;;8.90;;
29838;SDS011;18669;53.356;-1.464;2023-01-23T15:38:54;14.40;;;9.70;;
29838;SDS011;18669;53.356;-1.464;2023-01-23T15:41:38;20.05;;;8.60;;
29838;SDS011;18669;53.356;-1.464;2023-01-23T15:44:14;16.48;;;9.13;;
29838;SDS011;18669;53.356;-1.464;2023-01-23T15:46:44;13.45;;;7.60;;
29838;SDS011;18669;53.356;-1.464;2023-01-23T15:49:11;14.48;;;8.27;;
29838;SDS011;18669;53.356;-1.464;2023-01-23T15:51:38;20.25;;;12.38;;
29838;SDS011;18669;53.356;-1.464;2023-01-23T15:56:31;25.80;;;14.20;;
29838;SDS011;18669;53.356;-1.464;2023-01-23T15:59:00;26.52;;;15.65;;
29838;SDS011;18669;53.356;-1.464;2023-01-23T16:01:27;26.70;;;14.57;;
29838;SDS011;18669;53.356;-1.464;2023-01-23T16:03:54;22.77;;;15.48;;
29838;SDS011;18669;53.356;-1.464;2023-01-23T16:06:21;27.73;;;15.82;;
29838;SDS011;18669;53.356;-1.464;2023-01-23T16:08:49;26.30;;;16.05;;
29838;SDS011;18669;53.356;-1.464;2023-01-23T16:11:17;28.63;;;15.65;;
29838;SDS011;18669;53.356;-1.464;2023-01-23T16:13:47;26.08;;;15.48;;
29838;SDS011;18669;53.356;-1.464;2023-01-23T16:16:14;25.13;;;15.38;;
29838;SDS011;18669;53.356;-1.464;2023-01-23T16:18:42;29.98;;;15.55;;
29838;SDS011;18669;53.356;-1.464;2023-01-23T16:21:13;25.90;;;15.38;;
29838;SDS011;18669;53.356;-1.464;2023-01-23T16:23:41;23.45;;;15.30;;
29838;SDS011;18669;53.356;-1.464;2023-01-23T16:26:20;29.23;;;16.48;;
29838;SDS011;18669;53.356;-1.464;2023-01-23T16:28:48;25.13;;;15.35;;
29838;SDS011;18669;53.356;-1.464;2023-01-23T16:33:41;25.45;;;15.02;;
29838;SDS011;18669;53.356;-1.464;2023-01-23T16:36:12;22.95;;;15.40;;
29838;SDS011;18669;53.356;-1.464;2023-01-23T16:38:41;28.67;;;15.50;;
29838;SDS011;18669;53.356;-1.464;2023-01-23T16:41:09;27.70;;;16.27;;
29838;SDS011;18669;53.356;-1.464;2023-01-23T16:43:35;29.17;;;16.15;;
29838;SDS011;18669;53.356;-1.464;2023-01-23T16:46:02;26.98;;;16.65;;
29838;SDS011;18669;53.356;-1.464;2023-01-23T16:50:59;23.63;;;15.27;;
29838;SDS011;18669;53.356;-1.464;2023-01-23T16:53:35;27.50;;;16.98;;
29838;SDS011;18669;53.356;-1.464;2023-01-23T16:56:05;25.52;;;16.95;;
29838;SDS011;18669;53.356;-1.464;2023-01-23T16:58:38;28.80;;;17.02;;
29838;SDS011;18669;53.356;-1.464;2023-01-23T17:01:15;25.75;;;15.00;;
29838;SDS011;18669;53.356;-1.464;2023-01-23T17:03:54;36.85;;;16.52;;
29838;SDS011;18669;53.356;-1.464;2023-01-23T17:06:23;24.17;;;15.73;;
29838;SDS011;18669;53.356;-1.464;2023-01-23T17:08:49;27.27;;;16.00;;
29838;SDS011;18669;53.356;-1.464;2023-01-23T17:14:19;28.75;;;16.10;;
29838;SDS011;18669;53.356;-1.464;2023-01-23T17:16:48;30.52;;;16.88;;
29838;SDS011;18669;53.356;-1.464;2023-01-23T17:19:23;27.38;;;17.08;;
29838;SDS011;18669;53.356;-1.464;2023-01-23T17:21:51;31.75;;;17.45;;
29838;SDS011;18669;53.356;-1.464;2023-01-23T17:26:43;26.77;;;14.98;;
29838;SDS011;18669;53.356;-1.464;2023-01-23T17:29:09;31.73;;;17.02;;
29838;SDS011;18669;53.356;-1.464;2023-01-23T17:31:36;25.95;;;16.25;;